Weather History for Vinton, IA

Change the Weather History Date:

Thursday, November 8, 2012

  Actual Average Record
Temperature  
Mean Temperature 44 °F -  
Max Temperature 54 °F 48 °F 73 °F (2006)
Min Temperature 34 °F 29 °F 2 °F (1991)
Degree Days  
Heating Degree Days 21    
Moisture  
Dew Point 34 °F    
Average Humidity 72    
Maximum Humidity 89    
Minimum Humidity 50    
Precipitation  
Precipitation 0.00 in - - ()
Sea Level Pressure  
Sea Level Pressure 30.06 in    
Wind  
Wind Speed 9 mph (SSE)    
Max Wind Speed 20 mph    
Max Gust Speed 26 mph    
Visibility 10 miles    
Events      
Averages and records for this station are not official NWS values.
T = Trace of Precipitation, MM = Missing Value Source: NWS Daily Summary

Daily Weather History Graph

Daily Weather History Graph

Search for Another Location

Airport:

Trip Planner

Search our weather history database for the weather conditions in past years. The results will help you decide how hot, cold, wet, or windy it might be!

Date:

Astronomy

Nov. 08, 2012 Rise Set
Actual Time 6:50 AM CST 4:52 PM CST
Civil Twilight 6:20 AM CST 5:22 PM CST
Nautical Twilight 5:47 AM CST 5:55 PM CST
Astronomical Twilight 5:14 AM CST 6:28 PM CST
Moon 12:39 AM CST (11/8) 1:39 PM CST (11/8)
Length of Visible Light 11h 01m
Length of Day
10h 02m
Waning Crescent, 32% of the Moon is Illuminated
Nov 8
Waning Crescent
Nov 13
New
Nov 20
First Quarter
Nov 28
Full
Dec 6
Last Quarter

Hourly Weather History & Observations

Time (CST) Temp. Windchill Dew Point Humidity Pressure Visibility Wind Dir Wind Speed Gust Speed Precip Events Conditions
12:15 AM 36.9 °F 33.1 °F 30.6 °F 78% 30.14 in 10.0 mi South 4.6 mph - N/A   Clear
12:35 AM 36.9 °F 32.2 °F 30.7 °F 79% 30.15 in 10.0 mi South 5.8 mph - N/A   Scattered Clouds
1:15 AM 35.6 °F 31.7 °F 30.6 °F 82% 30.15 in 10.0 mi South 4.6 mph - N/A   Mostly Cloudy
1:35 AM 34.3 °F 29.2 °F 29.7 °F 83% 30.15 in 10.0 mi South 5.8 mph - N/A   Scattered Clouds
1:55 AM 34.3 °F 29.2 °F 30.2 °F 85% 30.15 in 10.0 mi South 5.8 mph - N/A   Clear
2:15 AM 34.3 °F 30.2 °F 30.7 °F 87% 30.14 in 10.0 mi South 4.6 mph - N/A   Clear
2:35 AM 34.3 °F 29.2 °F 30.9 °F 87% 30.15 in 10.0 mi South 5.8 mph - N/A   Clear
2:55 AM 34.3 °F 29.2 °F 31.1 °F 88% 30.14 in 10.0 mi South 5.8 mph - N/A   Clear
3:15 AM 34.3 °F 28.4 °F 31.5 °F 89% 30.13 in 10.0 mi South 6.9 mph - N/A   Clear
3:35 AM 34.3 °F 27.7 °F 31.1 °F 88% 30.13 in 10.0 mi South 8.1 mph - N/A   Clear
3:55 AM 34.3 °F 27.0 °F 31.1 °F 88% 30.13 in 10.0 mi South 9.2 mph - N/A   Clear
4:15 AM 34.3 °F 28.4 °F 30.7 °F 87% 30.13 in 10.0 mi South 6.9 mph - N/A   Clear
4:35 AM 34.3 °F 27.7 °F 30.9 °F 87% 30.13 in 10.0 mi South 8.1 mph - N/A   Clear
4:55 AM 34.3 °F 27.7 °F 30.9 °F 87% 30.13 in 10.0 mi South 8.1 mph - N/A   Clear
5:15 AM 34.3 °F 27.7 °F 30.9 °F 87% 30.13 in 10.0 mi South 8.1 mph - N/A   Clear
5:35 AM 34.3 °F 27.7 °F 31.1 °F 88% 30.11 in 10.0 mi South 8.1 mph - N/A   Clear
5:55 AM 34.3 °F 26.5 °F 31.1 °F 88% 30.11 in 7.0 mi South 10.4 mph - N/A   Clear
6:15 AM 34.3 °F 26.5 °F 31.1 °F 88% 30.11 in 7.0 mi South 10.4 mph - N/A   Clear
6:55 AM 34.3 °F 27.7 °F 31.3 °F 89% 30.11 in 7.0 mi South 8.1 mph - N/A   Clear
7:15 AM 34.3 °F 27.0 °F 31.1 °F 88% 30.12 in 7.0 mi South 9.2 mph - N/A   Clear
7:35 AM 34.3 °F 27.7 °F 30.9 °F 87% 30.12 in 5.0 mi SSE 8.1 mph - N/A   Clear
7:55 AM 34.9 °F 27.1 °F 30.9 °F 85% 30.13 in 7.0 mi South 10.4 mph - N/A   Clear
8:15 AM 36.9 °F 29.1 °F 32.0 °F 83% 30.13 in 7.0 mi South 11.5 mph - N/A   Clear
8:35 AM 38.3 °F 31.4 °F 32.4 °F 79% 30.13 in 10.0 mi South 10.4 mph - N/A   Clear
8:55 AM 39.4 °F 32.3 °F 32.7 °F 77% 30.12 in 10.0 mi South 11.5 mph - N/A   Clear
9:15 AM 40.6 °F 33.4 °F 33.1 °F 74% 30.11 in 10.0 mi South 12.7 mph - N/A   Clear
9:35 AM 41.9 °F 35.0 °F 33.3 °F 71% 30.12 in 10.0 mi South 12.7 mph 19.6 mph N/A   Clear
9:55 AM 43.3 °F 36.1 °F 33.8 °F 69% 30.11 in 10.0 mi South 15.0 mph - N/A   Clear
10:15 AM 46.8 °F - 36.1 °F 67% 30.11 in 10.0 mi South 13.8 mph - N/A   Clear
10:35 AM 47.5 °F - 35.8 °F 64% 30.11 in 10.0 mi South 19.6 mph 26.5 mph N/A   Clear
10:55 AM 49.5 °F - 37.2 °F 63% 30.10 in 10.0 mi South 15.0 mph 21.9 mph N/A   Clear
11:15 AM 49.5 °F - 36.1 °F 60% 30.10 in 10.0 mi South 15.0 mph 23.0 mph N/A   Clear
11:35 AM 49.5 °F - 35.8 °F 59% 30.09 in 10.0 mi South 15.0 mph 21.9 mph N/A   Clear
11:55 AM 50.7 °F - 36.5 °F 58% 30.07 in 10.0 mi South 15.0 mph 20.7 mph N/A   Clear
12:15 PM 51.8 °F - 37.0 °F 57% 30.06 in 10.0 mi South 15.0 mph 25.3 mph N/A   Clear
12:35 PM 52.0 °F - 36.7 °F 56% 30.05 in 10.0 mi SSE 12.7 mph 23.0 mph N/A   Clear
12:55 PM 54.5 °F - 37.9 °F 54% 30.04 in 10.0 mi South 13.8 mph - N/A   Clear
1:15 PM 54.5 °F - 37.8 °F 53% 30.03 in 10.0 mi South 16.1 mph 20.7 mph N/A   Clear
1:35 PM 54.5 °F - 36.9 °F 51% 30.02 in 10.0 mi SSE 17.3 mph - N/A   Clear
1:55 PM 54.5 °F - 36.9 °F 51% 30.01 in 10.0 mi SSE 17.3 mph 21.9 mph N/A   Clear
2:15 PM 54.5 °F - 36.5 °F 51% 30.00 in 10.0 mi SSE 17.3 mph 20.7 mph N/A   Clear
2:35 PM 54.5 °F - 36.1 °F 50% 30.00 in 10.0 mi South 11.5 mph - N/A   Clear
2:55 PM 54.5 °F - 36.3 °F 50% 29.99 in 10.0 mi SSE 12.7 mph 20.7 mph N/A   Clear
3:15 PM 54.5 °F - 36.3 °F 50% 29.99 in 10.0 mi SSE 18.4 mph 23.0 mph N/A   Clear
3:35 PM 54.5 °F - 37.0 °F 52% 29.99 in 10.0 mi SSE 15.0 mph 21.9 mph N/A   Clear
3:55 PM 54.5 °F - 37.6 °F 53% 29.98 in 10.0 mi SSE 12.7 mph 20.7 mph N/A   Clear
4:15 PM 53.6 °F - 37.2 °F 54% 29.98 in 10.0 mi SSE 11.5 mph - N/A   Clear
4:35 PM 52.0 °F - 37.2 °F 57% 29.99 in 10.0 mi SSE 11.5 mph 17.3 mph N/A   Clear
4:55 PM 49.5 °F - 36.5 °F 61% 29.98 in 10.0 mi SSE 10.4 mph - N/A   Clear
5:15 PM 49.5 °F - 37.0 °F 62% 29.99 in 10.0 mi SSE 10.4 mph - N/A   Clear
5:35 PM 49.5 °F - 37.4 °F 63% 29.99 in 10.0 mi SSE 11.5 mph - N/A   Clear
5:55 PM 49.5 °F - 38.5 °F 66% 29.99 in 10.0 mi SSE 12.7 mph 17.3 mph N/A   Clear
6:15 PM 49.5 °F - 38.7 °F 66% 29.99 in 10.0 mi SSE 9.2 mph - N/A   Clear
6:35 PM 46.9 °F - 37.0 °F 68% 29.99 in 10.0 mi SSE 9.2 mph - N/A   Clear
6:55 PM 46.9 °F - 37.4 °F 69% 30.00 in 10.0 mi South 9.2 mph - N/A   Clear
7:15 PM 46.9 °F - 37.4 °F 69% 30.00 in 10.0 mi South 6.9 mph - N/A   Clear
7:35 PM 43.9 °F 39.9 °F 35.8 °F 73% 30.01 in 10.0 mi South 6.9 mph - N/A   Clear
7:55 PM 43.3 °F 39.2 °F 35.6 °F 74% 30.01 in 10.0 mi South 6.9 mph - N/A   Clear
8:15 PM 42.6 °F 38.4 °F 35.6 °F 76% 30.01 in 10.0 mi South 6.9 mph - N/A   Clear
8:35 PM 42.1 °F 37.7 °F 35.2 °F 77% 30.01 in 10.0 mi South 6.9 mph - N/A   Clear
8:55 PM 42.8 °F 38.0 °F 35.8 °F 76% 30.01 in 10.0 mi South 8.1 mph - N/A   Clear
9:15 PM 42.8 °F 38.6 °F 35.6 °F 76% 30.01 in 10.0 mi South 6.9 mph - N/A   Clear
9:35 PM 43.2 °F 39.0 °F 35.8 °F 75% 30.01 in 10.0 mi South 6.9 mph - N/A   Clear
9:55 PM 42.8 °F 38.0 °F 35.8 °F 76% 30.01 in 10.0 mi South 8.1 mph - N/A   Clear
10:15 PM 42.6 °F 38.4 °F 35.8 °F 77% 30.01 in 10.0 mi SSE 6.9 mph - N/A   Clear
10:35 PM 41.7 °F 37.3 °F 35.8 °F 79% 30.01 in 10.0 mi SSE 6.9 mph - N/A   Clear
10:55 PM 41.0 °F 36.4 °F 35.4 °F 81% 30.01 in 10.0 mi SE 6.9 mph - N/A   Clear
11:15 PM 41.9 °F 36.9 °F 36.0 °F 79% 30.00 in 10.0 mi SE 8.1 mph - N/A   Clear
11:35 PM 41.4 °F 36.8 °F 35.6 °F 80% 30.00 in 10.0 mi SE 6.9 mph - N/A   Clear
11:55 PM 40.6 °F 38.6 °F 35.1 °F 80% 30.01 in 10.0 mi ESE 3.5 mph - N/A   Clear